Time;durP1;ratioP1;P1;durP2;ratioP2;P2;SDS_P1;SDS_P2;PMS_P1;PMS_P2;Temp;Humidity;BMP_temperature;BMP_pressure;BME280_temperature;BME280_humidity;BME280_pressure;Samples;Min_cycle;Max_cycle;Signal;HPM_P1;HPM_P2
2022/03/17 00:00:10;;;;;;;28.80;22.23;;;;;;;21.87;30.20;100069.16;341133;28;1831;-67
2022/03/17 00:00:22;;;;;;;30.52;23.25;;;;;;;21.91;30.08;100069.75;341972;28;1142;-67
2022/03/17 00:00:34;;;;;;;29.77;22.58;;;;;;;21.91;30.20;100065.34;340756;29;1028;-67
2022/03/17 00:00:47;;;;;;;29.15;22.20;;;;;;;21.90;30.19;100068.91;339600;29;1092;-67
2022/03/17 00:00:59;;;;;;;28.17;22.20;;;;;;;21.89;30.24;100071.66;339640;29;1080;-67
2022/03/17 00:01:11;;;;;;;28.20;22.40;;;;;;;21.85;30.36;100064.91;339744;28;1633;-67
2022/03/17 00:01:26;;;;;;;28.38;22.23;;;;;;;21.83;30.27;100070.34;341709;28;1142;-67
2022/03/17 00:01:41;;;;;;;28.02;22.10;;;;;;;21.86;30.28;100062.16;340829;28;1068;-67
2022/03/17 00:01:56;;;;;;;29.50;22.65;;;;;;;21.77;30.38;100068.13;342036;28;1406;-67
2022/03/17 00:02:08;;;;;;;30.65;22.90;;;;;;;21.76;30.64;100066.44;341857;28;1136;-67
2022/03/17 00:02:23;;;;;;;29.98;22.73;;;;;;;21.84;30.39;100069.38;341970;28;1083;-67
2022/03/17 00:02:36;;;;;;;27.83;22.05;;;;;;;21.77;30.57;100069.91;343197;28;1087;-67
2022/03/17 00:02:48;;;;;;;28.25;22.15;;;;;;;21.57;30.43;100066.06;343307;28;1240;-67
2022/03/17 00:03:00;;;;;;;29.23;22.17;;;;;;;21.40;30.78;100060.16;343730;28;1015;-67
2022/03/17 00:03:12;;;;;;;29.08;22.08;;;;;;;21.52;30.57;100063.75;343569;28;1797;-67
2022/03/17 00:03:24;;;;;;;28.02;22.08;;;;;;;21.54;30.75;100062.69;342344;28;1469;-67
2022/03/17 00:03:36;;;;;;;27.70;21.67;;;;;;;21.56;30.70;100059.09;343595;28;1356;-67
2022/03/17 00:03:49;;;;;;;27.60;21.77;;;;;;;21.58;30.57;100065.13;343208;28;1791;-67
2022/03/17 00:04:01;;;;;;;28.90;22.63;;;;;;;21.64;30.66;100062.03;342371;28;1264;-67
2022/03/17 00:04:13;;;;;;;29.35;22.70;;;;;;;21.72;30.39;100065.81;342401;28;1078;-67
2022/03/17 00:04:25;;;;;;;28.75;22.17;;;;;;;21.57;30.93;100061.66;342887;28;1441;-67
2022/03/17 00:04:37;;;;;;;28.08;22.05;;;;;;;21.69;30.77;100065.19;343531;28;1143;-67
2022/03/17 00:04:51;;;;;;;28.92;22.80;;;;;;;21.64;30.55;100062.88;342478;28;1703;-67
2022/03/17 00:05:05;;;;;;;29.85;22.67;;;;;;;21.77;30.80;100061.97;343672;28;1015;-67
2022/03/17 00:05:17;;;;;;;29.77;22.63;;;;;;;21.82;30.21;100059.88;343429;28;1804;-67
2022/03/17 00:05:29;;;;;;;28.98;22.70;;;;;;;21.78;30.30;100064.53;343459;28;1271;-67
2022/03/17 00:05:41;;;;;;;29.50;23.30;;;;;;;21.80;30.31;100059.97;343548;28;1099;-67
2022/03/17 00:05:56;;;;;;;29.00;22.92;;;;;;;21.82;30.11;100055.41;343189;28;2147;-67
2022/03/17 00:06:11;;;;;;;29.02;22.85;;;;;;;21.78;30.16;100055.75;343593;28;1047;-67
2022/03/17 00:06:23;;;;;;;28.52;23.08;;;;;;;21.77;30.30;100054.88;343480;28;1532;-67
2022/03/17 00:06:35;;;;;;;29.30;23.15;;;;;;;21.81;30.15;100053.72;343509;28;1144;-67
2022/03/17 00:06:48;;;;;;;29.92;23.15;;;;;;;21.84;30.38;100055.31;343605;28;1264;-67
2022/03/17 00:07:00;;;;;;;29.75;23.42;;;;;;;21.63;30.76;100061.19;343526;28;1857;-67
2022/03/17 00:07:13;;;;;;;29.38;23.15;;;;;;;21.80;30.52;100057.31;343593;28;1181;-67
2022/03/17 00:07:25;;;;;;;29.70;23.23;;;;;;;21.73;30.67;100066.66;342334;28;2104;-67
2022/03/17 00:07:39;;;;;;;29.15;23.08;;;;;;;21.74;30.15;100063.06;342101;28;1043;-67
2022/03/17 00:07:51;;;;;;;29.05;22.75;;;;;;;21.70;30.69;100057.13;342237;28;1174;-67
2022/03/17 00:08:04;;;;;;;29.45;22.65;;;;;;;21.64;30.54;100062.03;342099;28;1295;-67
2022/03/17 00:08:16;;;;;;;30.88;23.15;;;;;;;21.61;30.52;100064.88;342126;28;1052;-67
2022/03/17 00:08:28;;;;;;;32.45;23.45;;;;;;;21.67;30.55;100060.03;342236;28;1709;-67
2022/03/17 00:08:41;;;;;;;31.15;23.13;;;;;;;21.53;30.68;100058.38;342118;28;1279;-67
2022/03/17 00:08:53;;;;;;;30.38;22.98;;;;;;;21.59;30.89;100049.16;342115;28;1342;-67
2022/03/17 00:09:07;;;;;;;29.70;22.58;;;;;;;21.70;30.59;100058.94;343396;28;1304;-67
2022/03/17 00:09:19;;;;;;;29.98;22.17;;;;;;;21.77;30.65;100060.19;343889;28;1097;-67
2022/03/17 00:09:32;;;;;;;30.67;22.52;;;;;;;21.77;30.53;100057.53;343139;28;1914;-67
2022/03/17 00:09:44;;;;;;;29.30;22.60;;;;;;;21.79;30.34;100060.91;343759;28;1185;-67
2022/03/17 00:09:56;;;;;;;28.13;22.45;;;;;;;21.83;30.46;100057.09;343861;28;1321;-67
2022/03/17 00:10:14;;;;;;;28.33;22.30;;;;;;;21.82;30.55;100055.41;343688;28;1060;-67
2022/03/17 00:10:26;;;;;;;31.30;22.67;;;;;;;21.83;30.26;100057.09;343400;28;1540;-67
2022/03/17 00:10:39;;;;;;;30.77;22.60;;;;;;;21.87;30.42;100055.94;343878;28;1661;-67
2022/03/17 00:10:54;;;;;;;29.50;22.95;;;;;;;21.81;30.05;100053.72;343628;28;2095;-67
2022/03/17 00:11:06;;;;;;;30.17;23.17;;;;;;;21.85;30.06;100060.50;343912;28;1099;-67
2022/03/17 00:11:18;;;;;;;30.40;22.92;;;;;;;21.77;30.25;100057.53;343982;28;1083;-67
2022/03/17 00:11:30;;;;;;;29.92;23.08;;;;;;;21.74;30.44;100063.06;342571;28;1306;-67
2022/03/17 00:11:43;;;;;;;29.35;23.05;;;;;;;21.77;30.45;100060.19;342483;28;1054;-67
2022/03/17 00:11:55;;;;;;;30.42;23.17;;;;;;;21.79;30.33;100058.25;342551;28;1300;-67
2022/03/17 00:12:08;;;;;;;31.80;23.15;;;;;;;21.72;30.47;100054.38;342410;28;1072;-67
2022/03/17 00:12:21;;;;;;;30.45;22.98;;;;;;;21.73;30.51;100054.28;342344;28;1071;-67
2022/03/17 00:12:42;;;;;;;29.92;23.10;;;;;;;21.63;30.65;100057.69;343024;28;1645;-67
2022/03/17 00:12:54;;;;;;;30.42;23.48;;;;;;;21.67;30.84;100061.81;343579;28;966;-67
2022/03/17 00:13:06;;;;;;;31.40;23.75;;;;;;;21.54;30.88;100054.75;343627;28;1093;-67
2022/03/17 00:13:19;;;;;;;31.23;23.73;;;;;;;21.53;30.95;100061.00;343703;28;1075;-67
2022/03/17 00:13:31;;;;;;;31.50;24.23;;;;;;;21.58;30.72;100055.38;342096;28;1223;-67
2022/03/17 00:13:46;;;;;;;31.63;24.27;;;;;;;21.60;30.78;100056.13;342244;28;1282;-67
2022/03/17 00:13:58;;;;;;;31.75;24.27;;;;;;;21.48;31.16;100057.84;341985;28;1009;-67
2022/03/17 00:14:10;;;;;;;31.58;24.45;;;;;;;21.56;30.66;100049.38;342350;28;1019;-67
2022/03/17 00:14:23;;;;;;;31.67;23.85;;;;;;;21.59;30.79;100053.56;342567;28;1539;-67
2022/03/17 00:14:37;;;;;;;30.80;23.00;;;;;;;21.59;30.63;100050.94;342633;28;1150;-67
2022/03/17 00:14:51;;;;;;;30.52;22.95;;;;;;;21.44;30.88;100055.53;343999;28;1019;-67
2022/03/17 00:15:07;;;;;;;30.30;23.23;;;;;;;21.38;31.12;100048.84;343960;28;1317;-67
2022/03/17 00:15:19;;;;;;;29.63;23.30;;;;;;;21.51;31.00;100049.69;343932;28;1048;-67
2022/03/17 00:15:31;;;;;;;28.48;22.83;;;;;;;21.58;30.72;100046.63;343938;28;1160;-67
2022/03/17 00:15:43;;;;;;;28.30;22.63;;;;;;;21.57;30.97;100047.56;344018;28;1115;-67
2022/03/17 00:15:55;;;;;;;30.75;23.10;;;;;;;21.53;31.05;100050.44;343845;28;1114;-67
2022/03/17 00:16:09;;;;;;;31.90;23.98;;;;;;;21.63;30.85;100044.47;343889;28;1066;-67
2022/03/17 00:16:21;;;;;;;31.38;23.70;;;;;;;21.71;30.65;100052.69;342976;28;1384;-67
2022/03/17 00:16:34;;;;;;;31.30;23.40;;;;;;;21.63;30.80;100055.03;342604;28;1169;-67
2022/03/17 00:16:47;;;;;;;31.10;23.35;;;;;;;21.67;30.53;100054.72;342593;28;1193;-67
2022/03/17 00:16:59;;;;;;;30.13;23.65;;;;;;;21.68;30.63;100043.19;342587;28;1027;-67
2022/03/17 00:17:12;;;;;;;29.27;23.25;;;;;;;21.71;30.39;100052.69;343610;28;1617;-67
2022/03/17 00:17:25;;;;;;;29.77;23.08;;;;;;;21.70;30.64;100048.38;343929;28;1077;-67
2022/03/17 00:17:44;;;;;;;29.58;23.42;;;;;;;21.73;30.29;100045.47;343699;28;1015;-67
2022/03/17 00:17:57;;;;;;;28.13;22.83;;;;;;;21.73;30.36;100042.84;343860;28;1521;-67
2022/03/17 00:18:09;;;;;;;29.13;22.60;;;;;;;21.70;30.76;100045.72;343926;28;1235;-67
2022/03/17 00:18:21;;;;;;;30.20;23.08;;;;;;;21.76;30.65;100042.63;343220;28;1560;-67
2022/03/17 00:18:33;;;;;;;30.90;23.40;;;;;;;21.70;30.31;100051.00;343687;28;1421;-67
2022/03/17 00:18:46;;;;;;;31.42;23.73;;;;;;;21.68;30.63;100042.34;343879;28;1083;-67
2022/03/17 00:19:07;;;;;;;30.17;23.90;;;;;;;21.52;30.79;100048.72;343660;28;1081;-67
2022/03/17 00:19:19;;;;;;;29.58;23.85;;;;;;;21.61;30.37;100041.09;343769;28;1018;-67
2022/03/17 00:19:31;;;;;;;29.13;23.23;;;;;;;21.61;30.60;100041.09;342503;28;1201;-67
2022/03/17 00:19:45;;;;;;;29.85;23.45;;;;;;;21.63;30.72;100047.09;342516;28;1016;-67
2022/03/17 00:19:57;;;;;;;31.60;23.60;;;;;;;21.68;30.62;100042.34;342387;28;1915;-67
2022/03/17 00:20:10;;;;;;;31.60;23.42;;;;;;;21.70;30.50;100041.25;343310;28;1721;-67
2022/03/17 00:20:23;;;;;;;31.75;23.23;;;;;;;21.71;30.73;100052.69;343764;28;1027;-67
2022/03/17 00:20:35;;;;;;;32.05;23.38;;;;;;;21.73;30.42;100041.06;343987;28;1094;-67
2022/03/17 00:20:47;;;;;;;33.28;23.58;;;;;;;21.72;30.74;100049.09;343881;28;1290;-67
2022/03/17 00:20:59;;;;;;;31.73;23.63;;;;;;;21.63;30.77;100049.75;343691;28;1047;-67
2022/03/17 00:21:11;;;;;;;31.55;23.98;;;;;;;21.67;30.76;100040.63;342997;28;1759;-67
2022/03/17 00:21:24;;;;;;;31.85;24.38;;;;;;;21.33;31.36;100053.63;342537;28;1165;-67
2022/03/17 00:21:36;;;;;;;30.95;24.05;;;;;;;21.52;31.08;100048.72;342454;28;2894;-67
2022/03/17 00:21:48;;;;;;;30.50;23.60;;;;;;;21.52;31.01;100046.09;343582;28;1387;-67
2022/03/17 00:22:00;;;;;;;31.13;23.98;;;;;;;21.47;30.99;100047.38;343643;28;1148;-67
2022/03/17 00:22:15;;;;;;;31.73;24.33;;;;;;;21.39;30.69;100047.91;343485;28;1870;-67
2022/03/17 00:22:28;;;;;;;31.90;24.40;;;;;;;21.45;30.96;100052.78;343521;28;1285;-67
2022/03/17 00:22:40;;;;;;;31.05;23.90;;;;;;;21.43;31.01;100044.13;343576;28;2006;-67
2022/03/17 00:22:52;;;;;;;30.83;23.80;;;;;;;21.42;30.97;100052.97;343498;28;1859;-67
2022/03/17 00:23:05;;;;;;;30.80;23.67;;;;;;;21.39;30.96;100049.69;343742;28;1032;-67
2022/03/17 00:23:22;;;;;;;30.73;23.45;;;;;;;21.34;31.13;100044.72;342286;28;1142;-66
2022/03/17 00:23:34;;;;;;;30.10;23.17;;;;;;;21.39;30.97;100042.63;343300;28;1047;-67
2022/03/17 00:23:46;;;;;;;31.08;23.67;;;;;;;21.41;30.94;100047.78;343571;28;1137;-67
2022/03/17 00:23:58;;;;;;;30.75;23.90;;;;;;;21.45;30.69;100042.22;341548;28;1641;-67
2022/03/17 00:24:10;;;;;;;30.42;24.13;;;;;;;21.43;30.80;100043.25;340993;28;1638;-67
2022/03/17 00:24:22;;;;;;;30.67;23.92;;;;;;;21.50;30.75;100048.00;341906;28;2473;-67
2022/03/17 00:24:37;;;;;;;32.17;24.10;;;;;;;21.33;30.87;100043.06;341020;29;1224;-67
2022/03/17 00:24:49;;;;;;;32.03;23.70;;;;;;;21.32;30.80;100041.34;341097;29;1040;-67
2022/03/17 00:25:06;;;;;;;30.75;23.42;;;;;;;21.32;31.20;100041.34;341340;28;1497;-67
2022/03/17 00:25:18;;;;;;;31.27;23.88;;;;;;;21.27;31.57;100043.47;343579;28;1212;-67
2022/03/17 00:25:30;;;;;;;31.92;24.63;;;;;;;21.33;31.27;100043.91;343506;28;1395;-67
2022/03/17 00:25:42;;;;;;;31.77;24.88;;;;;;;21.30;31.21;100043.25;343688;28;1023;-67
2022/03/17 00:25:54;;;;;;;30.65;23.90;;;;;;;21.37;30.95;100044.53;343319;28;1063;-67
2022/03/17 00:26:06;;;;;;;31.55;24.67;;;;;;;21.35;30.95;100046.44;342813;28;1233;-67
2022/03/17 00:26:18;;;;;;;30.63;24.35;;;;;;;21.41;31.00;100045.13;342594;28;1478;-67
2022/03/17 00:26:30;;;;;;;31.52;24.30;;;;;;;21.47;30.92;100042.94;343914;28;1244;-67
2022/03/17 00:26:42;;;;;;;31.33;23.92;;;;;;;21.43;30.94;100040.59;343768;28;1087;-67
2022/03/17 00:26:55;;;;;;;31.92;23.73;;;;;;;21.42;31.12;100042.38;343882;28;1075;-67
2022/03/17 00:27:10;;;;;;;31.83;24.05;;;;;;;21.42;31.02;100046.84;343608;28;1821;-67
2022/03/17 00:27:22;;;;;;;31.55;23.95;;;;;;;21.46;30.71;100043.03;343614;28;1800;-67
2022/03/17 00:27:34;;;;;;;30.80;23.70;;;;;;;21.40;30.97;100044.28;342455;28;1100;-67
2022/03/17 00:27:46;;;;;;;29.38;22.80;;;;;;;21.34;31.03;100042.09;342396;28;1095;-67
2022/03/17 00:27:58;;;;;;;30.73;23.20;;;;;;;21.36;30.88;100045.47;342210;28;1976;-67
2022/03/17 00:28:12;;;;;;;31.90;24.20;;;;;;;21.35;30.99;100041.16;342365;28;1063;-67
2022/03/17 00:28:24;;;;;;;31.48;24.02;;;;;;;21.38;31.02;100040.06;342546;28;1535;-67
2022/03/17 00:28:36;;;;;;;30.52;23.45;;;;;;;21.42;30.94;100047.66;343864;28;1055;-67
2022/03/17 00:28:48;;;;;;;30.90;23.38;;;;;;;21.48;30.72;100047.25;343463;28;1192;-67
2022/03/17 00:29:02;;;;;;;31.10;23.92;;;;;;;21.10;31.20;100042.88;343684;28;1107;-67
2022/03/17 00:29:16;;;;;;;32.03;23.92;;;;;;;21.18;31.37;100044.97;343454;28;1928;-67
2022/03/17 00:29:28;;;;;;;30.65;23.30;;;;;;;21.24;31.34;100043.69;343242;28;1080;-67
2022/03/17 00:29:40;;;;;;;30.05;23.25;;;;;;;20.99;31.60;100045.44;343409;28;1771;-67
2022/03/17 00:29:52;;;;;;;30.35;23.92;;;;;;;20.71;32.02;100042.03;343900;28;1029;-67
2022/03/17 00:30:05;;;;;;;31.55;24.27;;;;;;;20.98;31.42;100048.16;343941;28;1097;-68
2022/03/17 00:30:18;;;;;;;32.13;24.27;;;;;;;20.88;31.68;100043.50;342328;28;1274;-67
2022/03/17 00:30:30;;;;;;;32.03;23.88;;;;;;;21.00;31.54;100044.47;343568;28;1126;-67
2022/03/17 00:30:42;;;;;;;32.70;24.23;;;;;;;20.98;31.52;100048.16;343696;28;1028;-67
2022/03/17 00:30:54;;;;;;;33.40;24.90;;;;;;;21.01;31.51;100038.25;344116;28;1919;-67
2022/03/17 00:31:06;;;;;;;33.50;24.85;;;;;;;20.92;31.80;100044.16;344984;28;1105;-67
2022/03/17 00:31:18;;;;;;;33.15;25.30;;;;;;;20.89;31.96;100044.38;344911;28;1165;-67
2022/03/17 00:31:30;;;;;;;34.08;25.73;;;;;;;20.98;31.61;100043.72;344905;28;1380;-67
2022/03/17 00:31:42;;;;;;;33.22;25.27;;;;;;;20.98;31.64;100043.72;344891;28;1067;-67
2022/03/17 00:31:55;;;;;;;32.95;24.73;;;;;;;21.03;31.41;100046.06;344880;28;1462;-67
2022/03/17 00:32:08;;;;;;;32.53;24.75;;;;;;;21.03;31.39;100040.78;344920;28;1075;-67
2022/03/17 00:32:20;;;;;;;32.13;24.33;;;;;;;21.10;31.54;100042.88;344947;28;1043;-67
2022/03/17 00:32:33;;;;;;;31.85;23.55;;;;;;;21.10;31.21;100045.50;344335;28;1075;-67
2022/03/17 00:32:45;;;;;;;31.88;23.67;;;;;;;21.17;31.14;100047.72;343137;28;1792;-67
2022/03/17 00:32:57;;;;;;;32.63;24.42;;;;;;;21.19;31.22;100045.81;343122;28;1844;-67
2022/03/17 00:33:09;;;;;;;31.60;24.02;;;;;;;21.24;31.10;100043.69;343432;28;1423;-67
2022/03/17 00:33:21;;;;;;;31.50;24.05;;;;;;;21.24;30.95;100047.19;342271;28;1575;-67
2022/03/17 00:33:33;;;;;;;31.05;23.63;;;;;;;21.26;30.94;100047.91;342424;28;1100;-67
2022/03/17 00:33:45;;;;;;;30.20;23.73;;;;;;;21.33;31.00;100043.91;342291;28;1051;-67
2022/03/17 00:33:59;;;;;;;30.75;24.00;;;;;;;21.23;31.18;100045.50;342448;28;1075;-67
2022/03/17 00:34:11;;;;;;;31.27;24.23;;;;;;;21.34;30.99;100039.44;342337;28;1090;-67
2022/03/17 00:34:23;;;;;;;32.28;24.23;;;;;;;21.32;30.83;100046.63;343134;28;718;-67
2022/03/17 00:35:35;;;;;;;32.03;23.83;;;;;;;21.31;31.21;100044.97;343719;28;1026;-67
2022/03/17 00:35:42;;;;;;;30.58;24.27;;;;;;;21.18;31.25;100042.31;343736;28;1102;-67
2022/03/17 00:35:54;;;;;;;30.88;24.30;;;;;;;21.24;31.11;100038.41;343985;28;1071;-67
2022/03/17 00:36:06;;;;;;;32.45;24.48;;;;;;;21.25;31.02;100046.25;343830;28;1066;-67
2022/03/17 00:36:18;;;;;;;31.88;23.73;;;;;;;21.29;30.96;100041.59;343924;28;1030;-67
2022/03/17 00:36:30;;;;;;;31.00;23.55;;;;;;;21.23;30.90;100037.56;343053;28;2176;-67
2022/03/17 00:36:42;;;;;;;30.73;23.70;;;;;;;21.24;30.98;100043.69;342371;28;1051;-67
2022/03/17 00:36:54;;;;;;;32.20;24.65;;;;;;;21.29;30.92;100046.88;342352;28;1078;-67
2022/03/17 00:37:07;;;;;;;33.03;25.20;;;;;;;21.15;31.17;100039.91;343175;28;1792;-67
2022/03/17 00:37:20;;;;;;;31.60;24.30;;;;;;;21.08;31.46;100044.78;343890;28;1114;-67
2022/03/17 00:37:32;;;;;;;32.22;24.77;;;;;;;21.07;31.44;100040.44;343925;28;1865;-68
2022/03/17 00:37:44;;;;;;;31.88;24.58;;;;;;;21.08;31.53;100042.13;343070;28;1055;-67
2022/03/17 00:37:56;;;;;;;33.03;24.73;;;;;;;21.14;31.15;100044.34;342599;28;1027;-67
2022/03/17 00:38:14;;;;;;;32.95;24.45;;;;;;;21.10;31.30;100042.88;342679;28;1830;-67
2022/03/17 00:38:26;;;;;;;31.98;24.73;;;;;;;21.16;31.28;100041.59;343710;28;1133;-67
2022/03/17 00:38:38;;;;;;;30.90;24.77;;;;;;;21.20;30.95;100042.22;343865;28;1059;-67
2022/03/17 00:38:50;;;;;;;29.75;23.95;;;;;;;21.26;31.03;100041.78;343833;28;1131;-67
2022/03/17 00:39:04;;;;;;;30.42;23.73;;;;;;;21.21;31.20;100041.25;344064;28;1183;-67
2022/03/17 00:39:16;;;;;;;32.63;24.50;;;;;;;21.29;30.93;100046.88;343025;28;1067;-67
2022/03/17 00:39:29;;;;;;;32.75;24.58;;;;;;;21.25;31.25;100045.38;343308;28;1220;-67
2022/03/17 00:39:41;;;;;;;31.83;23.75;;;;;;;21.21;31.20;100043.91;343870;28;1084;-67
2022/03/17 00:39:54;;;;;;;32.40;24.13;;;;;;;21.13;31.16;100047.94;343890;28;1082;-67
2022/03/17 00:40:06;;;;;;;32.20;24.33;;;;;;;21.10;31.22;100045.50;343484;28;1589;-67
2022/03/17 00:40:18;;;;;;;31.33;23.88;;;;;;;21.15;30.97;100046.03;342483;28;1050;-67
2022/03/17 00:40:30;;;;;;;31.90;23.60;;;;;;;21.21;31.26;100051.84;342367;28;1123;-67
2022/03/17 00:40:45;;;;;;;31.23;23.63;;;;;;;21.29;30.92;100046.88;342478;28;1095;-67
2022/03/17 00:40:57;;;;;;;30.63;24.17;;;;;;;21.24;31.16;100043.69;343137;28;1778;-67
2022/03/17 00:41:09;;;;;;;30.98;24.50;;;;;;;21.23;31.11;100042.00;343549;28;1159;-67
2022/03/17 00:41:21;;;;;;;31.00;24.40;;;;;;;21.17;31.08;100045.94;343581;28;1235;-67
2022/03/17 00:41:33;;;;;;;31.52;24.42;;;;;;;21.06;31.40;100051.13;343543;28;1148;-67
2022/03/17 00:41:45;;;;;;;31.10;24.13;;;;;;;21.01;31.60;100047.97;343595;28;1335;-67
2022/03/17 00:41:58;;;;;;;31.73;24.27;;;;;;;21.06;31.42;100046.66;342953;28;1917;-67
2022/03/17 00:42:10;;;;;;;31.25;24.40;;;;;;;21.11;31.46;100047.22;343435;28;1960;-67
2022/03/17 00:42:22;;;;;;;31.50;24.38;;;;;;;21.12;31.42;100043.59;343343;28;1316;-67
2022/03/17 00:42:35;;;;;;;31.08;24.00;;;;;;;21.19;31.40;100045.81;341141;29;1324;-67
2022/03/17 00:42:48;;;;;;;30.83;23.60;;;;;;;21.26;31.19;100052.38;340684;29;1044;-67
2022/03/17 00:43:01;;;;;;;31.08;23.58;;;;;;;21.29;31.09;100041.59;341205;28;1684;-67
2022/03/17 00:43:14;;;;;;;31.27;23.35;;;;;;;21.28;31.21;100043.38;342988;28;1735;-67
2022/03/17 00:43:27;;;;;;;31.15;23.65;;;;;;;21.27;30.94;100054.03;343277;28;1165;-67
2022/03/17 00:43:39;;;;;;;30.95;24.38;;;;;;;21.31;31.21;100051.09;343512;28;1252;-67
2022/03/17 00:43:53;;;;;;;31.65;24.55;;;;;;;21.34;30.96;100045.56;342052;28;1084;-67
2022/03/17 00:44:05;;;;;;;31.13;24.27;;;;;;;21.30;30.96;100043.25;342122;28;1674;-67
2022/03/17 00:44:17;;;;;;;31.40;23.83;;;;;;;21.24;30.73;100047.19;343543;28;1140;-67
2022/03/17 00:44:29;;;;;;;33.08;24.55;;;;;;;21.34;30.86;100050.84;343564;28;2064;-67
2022/03/17 00:44:41;;;;;;;33.03;25.30;;;;;;;21.37;31.02;100049.81;343528;28;1508;-67
2022/03/17 00:44:56;;;;;;;32.15;24.80;;;;;;;21.32;30.91;100052.75;343783;28;1728;-67
2022/03/17 00:45:12;;;;;;;30.73;23.33;;;;;;;21.38;30.74;100051.50;343678;28;1605;-67
2022/03/17 00:45:25;;;;;;;32.42;24.40;;;;;;;21.24;30.84;100054.28;342790;28;1058;-67
2022/03/17 00:45:39;;;;;;;32.50;24.70;;;;;;;21.36;30.99;100048.13;343839;28;1051;-67
2022/03/17 00:45:51;;;;;;;31.33;23.98;;;;;;;21.11;31.25;100049.84;343870;28;1070;-67
2022/03/17 00:46:03;;;;;;;30.83;24.00;;;;;;;21.21;30.99;100055.34;343838;28;1907;-67
2022/03/17 00:46:15;;;;;;;32.20;24.52;;;;;;;21.26;31.05;100052.38;343802;28;1082;-67
2022/03/17 00:46:27;;;;;;;33.25;25.08;;;;;;;21.32;31.01;100051.94;343667;28;1555;-67
2022/03/17 00:46:39;;;;;;;32.22;24.17;;;;;;;21.28;31.08;100050.47;343575;28;1149;-67
2022/03/17 00:46:51;;;;;;;29.95;23.60;;;;;;;21.26;31.01;100052.38;343321;28;1186;-67
2022/03/17 00:47:04;;;;;;;31.73;24.05;;;;;;;21.15;31.22;100051.31;342118;28;1308;-67
2022/03/17 00:47:16;;;;;;;33.88;24.50;;;;;;;21.29;31.28;100054.81;343559;28;1169;-67
2022/03/17 00:47:28;;;;;;;34.60;24.70;;;;;;;21.35;30.89;100051.72;343283;28;1849;-67
2022/03/17 00:47:41;;;;;;;32.80;24.30;;;;;;;21.41;30.88;100056.56;343403;28;1150;-67
2022/03/17 00:47:53;;;;;;;31.63;24.10;;;;;;;21.44;30.57;100056.38;343266;28;1608;-67
2022/03/17 00:48:05;;;;;;;30.85;23.30;;;;;;;21.44;30.66;100051.09;343611;28;1075;-67
2022/03/17 00:48:17;;;;;;;30.90;23.20;;;;;;;21.47;30.77;100064.09;343244;28;2061;-68
2022/03/17 00:48:29;;;;;;;31.67;23.55;;;;;;;21.46;30.71;100054.47;343533;28;1808;-67
2022/03/17 00:48:41;;;;;;;31.08;23.48;;;;;;;21.45;30.51;100063.38;343852;28;1052;-67
2022/03/17 00:48:53;;;;;;;29.92;22.48;;;;;;;21.47;30.67;100061.47;343703;28;1563;-67
2022/03/17 00:49:06;;;;;;;28.95;22.33;;;;;;;21.46;30.72;100054.47;343782;28;2013;-67
2022/03/17 00:49:18;;;;;;;30.05;23.33;;;;;;;21.50;30.79;100063.88;343573;28;1019;-67
2022/03/17 00:49:29;;;;;;;30.63;23.33;;;;;;;21.52;30.75;100059.31;343829;28;1272;-67
2022/03/17 00:49:42;;;;;;;30.65;22.85;;;;;;;21.41;30.69;100061.88;343780;28;1094;-67
2022/03/17 00:49:54;;;;;;;31.85;23.83;;;;;;;21.36;30.96;100058.69;343786;28;1046;-67
2022/03/17 00:50:07;;;;;;;32.90;24.48;;;;;;;21.41;30.78;100059.22;343813;28;1090;-67
2022/03/17 00:50:21;;;;;;;34.03;24.98;;;;;;;21.41;30.86;100056.56;342686;28;2108;-67
2022/03/17 00:50:34;;;;;;;33.58;24.88;;;;;;;21.39;30.65;100058.47;343415;28;1903;-67
2022/03/17 00:50:46;;;;;;;33.60;25.17;;;;;;;21.22;30.87;100061.47;343626;28;1031;-67
2022/03/17 00:50:58;;;;;;;33.58;24.92;;;;;;;21.18;31.32;100060.00;343563;28;1760;-67
2022/03/17 00:51:10;;;;;;;33.63;25.58;;;;;;;21.25;30.97;100058.59;343540;28;1108;-67
2022/03/17 00:51:22;;;;;;;33.15;25.35;;;;;;;21.27;31.11;100060.19;342383;28;1422;-67
2022/03/17 00:51:34;;;;;;;33.08;24.80;;;;;;;21.15;31.31;100061.91;343854;28;1054;-67
2022/03/17 00:51:46;;;;;;;31.83;24.25;;;;;;;21.26;31.15;100057.66;343790;28;1255;-67
2022/03/17 00:51:59;;;;;;;30.63;23.75;;;;;;;21.21;31.21;100062.41;343780;28;1376;-67
2022/03/17 00:52:12;;;;;;;31.23;24.40;;;;;;;21.19;31.27;100065.19;343837;28;1062;-67
2022/03/17 00:52:24;;;;;;;30.52;24.00;;;;;;;21.18;30.90;100066.13;342548;28;1201;-67
2022/03/17 00:52:36;;;;;;;31.15;23.83;;;;;;;21.26;30.88;100062.94;342334;28;1026;-67
2022/03/17 00:52:49;;;;;;;30.65;23.58;;;;;;;21.27;31.03;100060.19;343374;28;1857;-67
2022/03/17 00:53:02;;;;;;;31.00;23.92;;;;;;;21.29;30.94;100065.38;343706;28;1015;-67
2022/03/17 00:53:14;;;;;;;32.85;25.05;;;;;;;21.29;31.02;100062.75;343806;28;1031;-67
2022/03/17 00:53:26;;;;;;;33.83;25.20;;;;;;;21.08;31.49;100065.91;343542;28;1129;-67
2022/03/17 00:53:38;;;;;;;35.70;25.58;;;;;;;21.07;31.56;100058.94;343813;28;1070;-67
2022/03/17 00:53:50;;;;;;;35.95;25.17;;;;;;;21.21;31.29;100059.75;343418;28;1756;-67
2022/03/17 00:54:02;;;;;;;35.22;25.63;;;;;;;21.23;31.43;100063.13;343715;28;1202;-67
2022/03/17 00:54:14;;;;;;;33.78;25.55;;;;;;;21.26;31.36;100058.50;342894;28;3398;-67
2022/03/17 00:54:26;;;;;;;31.80;24.55;;;;;;;21.28;31.11;100066.31;343126;28;1936;-67
2022/03/17 00:54:39;;;;;;;30.08;23.23;;;;;;;21.33;31.04;100067.69;342522;28;1190;-67
2022/03/17 00:54:51;;;;;;;30.50;23.55;;;;;;;21.34;31.07;100066.72;343484;28;1719;-67
2022/03/17 00:55:05;;;;;;;30.60;24.13;;;;;;;21.33;31.12;100066.84;343716;28;1099;-67
2022/03/17 00:55:17;;;;;;;30.80;24.10;;;;;;;21.39;31.01;100062.91;342338;28;1613;-67
2022/03/17 00:55:29;;;;;;;31.58;24.17;;;;;;;21.43;30.85;100064.41;342487;28;1088;-67
2022/03/17 00:55:41;;;;;;;31.35;23.85;;;;;;;21.38;30.73;100062.06;342482;28;1085;-67
2022/03/17 00:55:53;;;;;;;31.27;24.23;;;;;;;21.37;30.69;100063.03;342514;28;1071;-67
2022/03/17 00:56:05;;;;;;;31.17;23.88;;;;;;;21.43;30.95;100065.28;343392;28;1230;-67
2022/03/17 00:56:17;;;;;;;32.78;24.65;;;;;;;21.19;31.07;100062.53;344241;28;1792;-67
2022/03/17 00:56:31;;;;;;;32.78;24.50;;;;;;;21.22;31.23;100062.31;344478;28;1038;-67
2022/03/17 00:56:43;;;;;;;33.05;24.75;;;;;;;21.29;31.13;100062.75;344914;28;1039;-67
2022/03/17 00:56:55;;;;;;;34.88;25.15;;;;;;;21.33;30.83;100064.22;344892;28;1051;-67
2022/03/17 00:57:08;;;;;;;35.30;24.73;;;;;;;21.35;30.62;100070.25;343703;28;1268;-67
2022/03/17 00:57:20;;;;;;;35.42;24.45;;;;;;;21.36;30.99;100063.97;342412;28;2266;-67
2022/03/17 00:57:33;;;;;;;34.05;24.55;;;;;;;21.41;31.01;100075.09;341943;28;1044;-67
2022/03/17 00:57:45;;;;;;;33.38;24.13;;;;;;;21.41;30.98;100066.28;342583;28;2112;-67
2022/03/17 00:57:58;;;;;;;29.90;23.25;;;;;;;21.26;30.89;100065.59;342690;28;1487;-69
2022/03/17 00:58:10;;;;;;;30.45;23.30;;;;;;;21.38;30.75;100067.34;343529;28;1106;-69
2022/03/17 00:58:22;;;;;;;31.98;24.13;;;;;;;21.31;30.95;100068.75;343359;28;1980;-69
2022/03/17 00:58:35;;;;;;;32.25;24.90;;;;;;;21.33;31.00;100066.84;343572;28;1063;-69
2022/03/17 00:58:49;;;;;;;31.17;24.48;;;;;;;21.07;31.47;100068.69;343705;28;1224;-69
2022/03/17 00:59:02;;;;;;;32.05;25.02;;;;;;;21.03;31.39;100060.13;343410;28;1290;-69
2022/03/17 00:59:14;;;;;;;33.33;25.38;;;;;;;21.10;31.72;100069.28;343517;28;1840;-69
2022/03/17 00:59:26;;;;;;;33.17;25.13;;;;;;;21.15;31.45;100067.19;343336;28;1756;-69
2022/03/17 00:59:40;;;;;;;33.53;25.17;;;;;;;21.09;31.46;100059.69;343270;28;1097;-69
2022/03/17 00:59:52;;;;;;;32.63;24.95;;;;;;;21.08;31.51;100065.91;343533;28;1623;-69